createdAt,value
2023-04-11T00:02:04.848Z,3.50
2023-04-11T00:04:39.252Z,3.60
2023-04-11T00:07:12.605Z,3.50
2023-04-11T00:09:45.842Z,2.50
2023-04-11T00:12:19.089Z,2.23
2023-04-11T00:14:53.860Z,2.17
2023-04-11T00:17:28.784Z,3.67
2023-04-11T00:20:07.435Z,4.17
2023-04-11T00:22:40.771Z,2.20
2023-04-11T00:25:14.134Z,2.60
2023-04-11T00:27:47.316Z,2.17
2023-04-11T00:30:20.639Z,2.70
2023-04-11T00:32:54.020Z,2.53
2023-04-11T00:35:27.379Z,3.33
2023-04-11T00:38:02.084Z,2.50
2023-04-11T00:40:35.514Z,2.23
2023-04-11T00:43:08.672Z,3.07
2023-04-11T00:45:41.954Z,2.53
2023-04-11T00:48:15.633Z,3.07
2023-04-11T00:50:48.824Z,4.07
2023-04-11T00:53:23.151Z,2.83
2023-04-11T00:55:56.352Z,3.80
2023-04-11T00:58:29.651Z,2.53
2023-04-11T01:01:08.949Z,4.27
2023-04-11T01:03:42.322Z,1.83
2023-04-11T01:06:15.905Z,2.77
2023-04-11T01:08:49.521Z,3.70
2023-04-11T01:11:22.827Z,2.43
2023-04-11T01:13:56.154Z,2.70
2023-04-11T01:16:29.570Z,2.87
2023-04-11T01:19:02.816Z,2.70
2023-04-11T01:21:37.799Z,2.20
2023-04-11T01:24:11.569Z,2.57
2023-04-11T01:26:44.896Z,2.33
2023-04-11T01:29:18.066Z,4.10
2023-04-11T01:31:52.219Z,3.53
2023-04-11T01:34:28.186Z,2.20
2023-04-11T01:37:01.636Z,2.00
2023-04-11T01:39:34.861Z,3.10
2023-04-11T01:42:08.718Z,2.67
2023-04-11T01:44:42.289Z,3.20
2023-04-11T01:47:15.612Z,2.17
2023-04-11T01:49:49.607Z,2.47
2023-04-11T01:52:22.797Z,2.17
2023-04-11T01:54:56.014Z,2.60
2023-04-11T01:57:29.203Z,2.53
2023-04-11T02:00:02.588Z,4.73
2023-04-11T02:02:35.785Z,3.17
2023-04-11T02:05:09.229Z,1.87
2023-04-11T02:07:42.450Z,2.83
2023-04-11T02:10:15.633Z,3.00
2023-04-11T02:12:48.856Z,2.70
2023-04-11T02:15:22.064Z,3.80
2023-04-11T02:17:55.308Z,2.37
2023-04-11T02:20:29.011Z,1.70
2023-04-11T02:23:04.338Z,1.63
2023-04-11T02:25:38.934Z,1.93
2023-04-11T02:28:12.202Z,3.20
2023-04-11T02:30:45.508Z,3.13
2023-04-11T02:33:19.363Z,3.20
2023-04-11T02:35:52.859Z,2.10
2023-04-11T02:38:26.157Z,1.73
2023-04-11T02:41:00.207Z,3.13
2023-04-11T02:43:33.368Z,2.17
2023-04-11T02:46:12.687Z,2.60
2023-04-11T02:48:46.607Z,1.67
2023-04-11T02:51:19.762Z,2.20
2023-04-11T02:53:52.963Z,3.10
2023-04-11T02:56:26.182Z,2.10
2023-04-11T02:58:59.422Z,2.87
2023-04-11T03:01:33.342Z,1.70
2023-04-11T03:04:07.286Z,2.40
2023-04-11T03:06:40.696Z,2.80
2023-04-11T03:12:07.450Z,2.30
2023-04-11T03:14:40.766Z,1.37
2023-04-11T03:17:13.908Z,2.33
2023-04-11T03:19:47.144Z,2.13
2023-04-11T03:22:20.379Z,2.00
2023-04-11T03:24:53.610Z,1.43
2023-04-11T03:27:27.070Z,2.00
2023-04-11T03:30:00.374Z,1.83
2023-04-11T03:32:33.578Z,1.93
2023-04-11T03:35:06.864Z,2.67
2023-04-11T03:37:40.066Z,1.97
2023-04-11T03:40:13.534Z,2.17
2023-04-11T03:42:46.959Z,2.33
2023-04-11T03:45:20.200Z,2.80
2023-04-11T03:47:53.767Z,2.20
2023-04-11T03:50:27.017Z,2.17
2023-04-11T03:53:00.331Z,1.83
2023-04-11T03:55:33.718Z,2.40
2023-04-11T03:58:06.923Z,2.27
2023-04-11T04:00:40.057Z,2.03
2023-04-11T04:03:13.765Z,3.43
2023-04-11T04:05:47.134Z,2.60
2023-04-11T04:08:20.407Z,2.40
2023-04-11T04:10:53.583Z,2.00
2023-04-11T04:13:28.129Z,3.20
2023-04-11T04:16:03.415Z,2.00
2023-04-11T04:18:37.154Z,2.10
2023-04-11T04:21:10.373Z,1.93
2023-04-11T04:23:47.460Z,2.03
2023-04-11T04:26:25.098Z,1.50
2023-04-11T04:29:04.566Z,2.20
2023-04-11T04:31:38.307Z,2.33
2023-04-11T04:34:11.545Z,2.50
2023-04-11T04:36:47.984Z,2.50
2023-04-11T04:39:21.254Z,3.33
2023-04-11T04:42:04.188Z,1.83
2023-04-11T04:44:37.495Z,2.97
2023-04-11T04:47:10.872Z,2.87
2023-04-11T04:49:44.435Z,3.60
2023-04-11T04:52:17.645Z,2.10
2023-04-11T04:54:50.837Z,2.50
2023-04-11T04:57:27.241Z,3.00
2023-04-11T05:00:00.455Z,3.13
2023-04-11T05:02:33.697Z,1.60
2023-04-11T05:05:07.832Z,2.20
2023-04-11T05:07:40.999Z,2.60
2023-04-11T05:10:14.202Z,3.37
2023-04-11T05:12:47.645Z,2.53
2023-04-11T05:15:23.056Z,3.20
2023-04-11T05:17:57.504Z,2.20
2023-04-11T05:20:30.896Z,4.27
2023-04-11T05:23:04.046Z,2.57
2023-04-11T05:25:37.302Z,3.97
2023-04-11T05:28:10.516Z,3.07
2023-04-11T05:30:43.748Z,2.27
2023-04-11T05:33:17.108Z,2.60
2023-04-11T05:35:50.359Z,3.83
2023-04-11T05:38:23.609Z,2.70
2023-04-11T05:40:56.769Z,2.90
2023-04-11T05:43:29.962Z,4.37
2023-04-11T05:46:03.434Z,3.10
2023-04-11T05:48:38.175Z,2.60
2023-04-11T05:51:11.430Z,3.70
2023-04-11T05:53:44.922Z,3.47
2023-04-11T05:56:18.367Z,2.83
2023-04-11T05:58:52.260Z,3.40
2023-04-11T06:01:26.112Z,2.90
2023-04-11T06:03:59.763Z,2.30
2023-04-11T06:06:33.993Z,3.67
2023-04-11T06:09:09.083Z,4.70
2023-04-11T06:11:42.284Z,2.60
2023-04-11T06:14:15.630Z,3.47
2023-04-11T06:16:48.903Z,2.50
2023-04-11T06:19:22.068Z,4.33
2023-04-11T06:21:55.239Z,3.00
2023-04-11T06:24:38.935Z,2.13
2023-04-11T06:27:12.205Z,1.70
2023-04-11T06:29:45.510Z,3.70
2023-04-11T06:32:18.717Z,2.03
2023-04-11T06:34:52.234Z,2.43
2023-04-11T06:37:26.129Z,3.27
2023-04-11T06:40:02.504Z,2.70
2023-04-11T06:42:35.870Z,2.53
2023-04-11T06:45:10.159Z,1.93
2023-04-11T06:47:43.484Z,2.80
2023-04-11T06:50:16.672Z,2.33
2023-04-11T06:52:49.950Z,2.70
2023-04-11T06:55:23.323Z,3.50
2023-04-11T06:57:56.477Z,3.07
2023-04-11T07:00:29.683Z,2.80
2023-04-11T07:03:07.878Z,2.83
2023-04-11T07:05:41.506Z,1.67
2023-04-11T07:08:14.699Z,3.10
2023-04-11T07:10:47.937Z,3.83
2023-04-11T07:13:21.443Z,2.43
2023-04-11T07:15:54.728Z,2.27
2023-04-11T07:18:27.979Z,2.20
2023-04-11T07:21:01.178Z,1.77
2023-04-11T07:23:34.333Z,1.23
2023-04-11T07:26:11.005Z,2.00
2023-04-11T07:28:45.117Z,1.77
2023-04-11T07:31:21.418Z,1.50
2023-04-11T07:33:54.951Z,1.03
2023-04-11T07:36:28.381Z,2.23
2023-04-11T07:39:02.075Z,0.80
2023-04-11T07:41:37.123Z,1.30
2023-04-11T07:44:10.469Z,1.47
2023-04-11T07:46:43.635Z,1.80
2023-04-11T07:49:16.823Z,1.37
2023-04-11T07:51:50.035Z,1.63
2023-04-11T07:54:25.176Z,1.07
2023-04-11T07:56:59.166Z,1.53
2023-04-11T07:59:32.463Z,2.20
2023-04-11T08:02:07.971Z,2.13
2023-04-11T08:04:41.393Z,1.77
2023-04-11T08:07:15.178Z,1.33
2023-04-11T08:09:48.439Z,1.10
2023-04-11T08:12:21.675Z,1.10
2023-04-11T08:14:54.871Z,1.23
2023-04-11T08:17:29.342Z,1.27
2023-04-11T08:20:04.878Z,1.00
2023-04-11T08:22:39.290Z,1.97
2023-04-11T08:25:12.888Z,1.20
2023-04-11T08:27:46.109Z,1.17
2023-04-11T08:30:19.318Z,0.87
2023-04-11T08:32:52.498Z,2.20
2023-04-11T08:35:25.722Z,1.70
2023-04-11T08:37:58.966Z,1.40
2023-04-11T08:40:32.327Z,0.70
2023-04-11T08:43:11.953Z,1.27
2023-04-11T08:45:45.195Z,1.80
2023-04-11T08:48:21.793Z,2.20
2023-04-11T08:50:54.966Z,1.13
2023-04-11T08:53:29.010Z,0.93
2023-04-11T08:56:02.211Z,1.00
2023-04-11T08:58:35.392Z,0.83
2023-04-11T09:01:27.270Z,1.20
2023-04-11T09:04:01.272Z,0.90
2023-04-11T09:06:34.868Z,1.00
2023-04-11T09:09:09.658Z,1.33
2023-04-11T09:11:52.790Z,1.73
2023-04-11T09:14:27.326Z,0.80
2023-04-11T09:17:00.738Z,0.70
2023-04-11T09:19:35.428Z,1.50
2023-04-11T09:22:09.200Z,0.90
2023-04-11T09:24:43.003Z,1.40
2023-04-11T09:27:19.521Z,1.07
2023-04-11T09:29:52.703Z,0.83
2023-04-11T09:32:31.666Z,1.17
2023-04-11T09:35:09.369Z,0.83
2023-04-11T09:37:46.990Z,1.43
2023-04-11T09:40:21.398Z,0.90
2023-04-11T09:42:59.022Z,0.83
2023-04-11T09:45:40.901Z,0.87
2023-04-11T09:48:29.346Z,1.53
2023-04-11T09:51:09.014Z,1.00
2023-04-11T09:53:42.441Z,0.80
2023-04-11T09:56:15.755Z,1.60
2023-04-11T09:58:49.848Z,1.33
2023-04-11T10:01:24.413Z,0.70
2023-04-11T10:03:58.336Z,1.37
2023-04-11T10:06:34.147Z,1.07
2023-04-11T10:09:11.974Z,1.23
2023-04-11T10:11:45.794Z,0.80
2023-04-11T10:14:37.546Z,1.00
2023-04-11T10:17:20.490Z,1.00
2023-04-11T10:19:58.820Z,1.37
2023-04-11T10:22:41.533Z,2.50
2023-04-11T10:25:18.708Z,1.10
2023-04-11T10:28:00.674Z,1.93
2023-04-11T10:30:39.919Z,1.73
2023-04-11T10:33:14.958Z,1.10
2023-04-11T10:35:58.346Z,1.07
2023-04-11T10:38:37.693Z,1.07
2023-04-11T10:41:25.414Z,1.40
2023-04-11T10:44:20.619Z,1.07
2023-04-11T10:46:56.879Z,1.67
2023-04-11T10:49:34.240Z,1.10
2023-04-11T10:52:17.224Z,1.00
2023-04-11T10:54:51.736Z,0.60
2023-04-11T10:57:24.938Z,1.07
2023-04-11T10:59:58.207Z,0.63
2023-04-11T11:02:38.673Z,0.63
2023-04-11T11:05:18.720Z,0.97
2023-04-11T11:07:52.787Z,0.80
2023-04-11T11:10:37.895Z,1.20
2023-04-11T11:13:11.256Z,0.70
2023-04-11T11:15:48.849Z,1.17
2023-04-11T11:18:22.115Z,0.80
2023-04-11T11:20:56.373Z,0.93
2023-04-11T11:23:29.557Z,0.70
2023-04-11T11:26:02.803Z,1.03
2023-04-11T11:28:46.460Z,0.77
2023-04-11T11:31:19.746Z,0.90
2023-04-11T11:33:55.702Z,0.97
2023-04-11T11:36:29.345Z,0.97
2023-04-11T11:39:05.317Z,1.17
2023-04-11T11:41:39.109Z,0.63
2023-04-11T11:44:24.335Z,0.73
2023-04-11T11:47:12.605Z,1.20
2023-04-11T11:49:56.063Z,0.73
2023-04-11T11:52:35.136Z,0.70
2023-04-11T11:55:12.992Z,0.90
2023-04-11T11:57:47.089Z,1.10
2023-04-11T12:00:27.093Z,0.73
2023-04-11T12:03:00.871Z,0.70
2023-04-11T12:05:35.146Z,0.70
2023-04-11T12:08:08.946Z,1.00
2023-04-11T12:14:23.851Z,1.03
2023-04-11T12:16:57.072Z,0.70
2023-04-11T12:19:30.355Z,1.67
2023-04-11T12:22:03.531Z,1.10
2023-04-11T12:24:36.826Z,0.90
2023-04-11T12:27:10.784Z,0.80
2023-04-11T12:29:46.246Z,1.27
2023-04-11T12:32:19.439Z,0.80
2023-04-11T12:34:52.615Z,1.13
2023-04-11T12:37:25.946Z,0.87
2023-04-11T12:39:59.174Z,0.70
2023-04-11T12:42:34.801Z,1.03
2023-04-11T12:45:11.205Z,1.53
2023-04-11T12:47:44.602Z,1.70
2023-04-11T12:50:17.960Z,1.23
2023-04-11T12:52:51.217Z,1.50
2023-04-11T12:55:24.525Z,0.90
2023-04-11T12:57:57.831Z,0.70
2023-04-11T13:00:31.128Z,1.00
2023-04-11T13:03:04.996Z,0.90
2023-04-11T13:05:38.382Z,0.87
2023-04-11T13:08:11.565Z,1.30
2023-04-11T13:10:44.828Z,1.23
2023-04-11T13:13:18.948Z,0.97
2023-04-11T13:15:52.296Z,1.00
2023-04-11T13:18:25.586Z,0.70
2023-04-11T13:20:58.810Z,0.90
2023-04-11T13:23:31.970Z,1.20
2023-04-11T13:26:06.967Z,1.20
2023-04-11T13:28:40.182Z,1.00
2023-04-11T13:31:14.175Z,1.00
2023-04-11T13:33:48.110Z,0.97
2023-04-11T13:36:21.337Z,0.93
2023-04-11T13:38:55.366Z,1.10
2023-04-11T13:41:28.675Z,1.57
2023-04-11T13:44:01.898Z,0.73
2023-04-11T13:46:35.152Z,1.20
2023-04-11T13:49:08.371Z,1.37
2023-04-11T13:51:41.556Z,1.00
2023-04-11T13:54:14.770Z,1.20
2023-04-11T13:56:47.986Z,1.13
2023-04-11T13:59:21.230Z,1.47
2023-04-11T14:01:54.636Z,0.87
2023-04-11T14:04:27.935Z,1.57
2023-04-11T14:07:01.324Z,0.90
2023-04-11T14:09:34.492Z,0.93
2023-04-11T14:12:07.681Z,1.43
2023-04-11T14:14:40.900Z,1.10
2023-04-11T14:17:14.122Z,1.37
2023-04-11T14:19:47.350Z,0.93
2023-04-11T14:22:20.664Z,2.13
2023-04-11T14:24:53.830Z,1.20
2023-04-11T14:27:27.028Z,1.67
2023-04-11T14:30:00.203Z,1.60
2023-04-11T14:32:33.496Z,1.27
2023-04-11T14:35:08.822Z,1.53
2023-04-11T14:37:41.996Z,1.20
2023-04-11T14:40:15.197Z,1.43
2023-04-11T14:42:48.374Z,1.20
2023-04-11T14:45:21.607Z,0.90
2023-04-11T14:47:54.834Z,1.23
2023-04-11T14:50:28.974Z,1.63
2023-04-11T14:53:02.919Z,1.57
2023-04-11T14:55:39.233Z,1.33
2023-04-11T14:58:12.394Z,0.83
2023-04-11T15:00:45.635Z,0.60
2023-04-11T15:03:19.096Z,0.63
2023-04-11T15:05:52.430Z,0.83
2023-04-11T15:08:25.577Z,0.90
2023-04-11T15:10:58.751Z,0.60
2023-04-11T15:13:32.069Z,0.87
2023-04-11T15:16:06.516Z,0.90
2023-04-11T15:18:40.603Z,0.80
2023-04-11T15:21:13.818Z,0.67
2023-04-11T15:23:47.058Z,0.60
2023-04-11T15:26:21.486Z,0.80
2023-04-11T15:28:54.716Z,0.67
2023-04-11T15:31:28.011Z,1.33
2023-04-11T15:34:03.891Z,0.70
2023-04-11T15:36:38.458Z,0.87
2023-04-11T15:39:11.641Z,1.20
2023-04-11T15:41:44.817Z,1.10
2023-04-11T15:44:18.055Z,1.20
2023-04-11T15:46:51.271Z,0.83
2023-04-11T15:49:24.533Z,0.70
2023-04-11T15:51:57.712Z,0.93
2023-04-11T15:54:32.433Z,1.47
2023-04-11T15:57:05.651Z,1.03
2023-04-11T15:59:41.300Z,0.90
2023-04-11T16:02:17.492Z,1.83
2023-04-11T16:04:53.852Z,1.50
2023-04-11T16:07:27.430Z,1.20
2023-04-11T16:10:00.797Z,1.87
2023-04-11T16:12:34.240Z,1.20
2023-04-11T16:15:07.897Z,1.90
2023-04-11T16:17:41.162Z,0.97
2023-04-11T16:20:18.842Z,1.13
2023-04-11T16:22:52.091Z,0.83
2023-04-11T16:25:25.335Z,0.87
2023-04-11T16:27:58.567Z,0.80
2023-04-11T16:30:31.774Z,1.40
2023-04-11T16:33:04.965Z,1.67
2023-04-11T16:35:38.244Z,0.60
2023-04-11T16:38:11.431Z,1.47
2023-04-11T16:40:44.826Z,1.40
2023-04-11T16:43:18.064Z,1.73
2023-04-11T16:45:53.476Z,1.90
2023-04-11T16:48:27.029Z,1.40
2023-04-11T16:51:00.357Z,2.60
2023-04-11T16:53:33.603Z,1.60
2023-04-11T16:56:06.964Z,1.73
2023-04-11T16:58:40.233Z,1.47
2023-04-11T17:01:13.466Z,1.20
2023-04-11T17:03:47.506Z,1.73
2023-04-11T17:06:20.830Z,1.67
2023-04-11T17:08:54.062Z,1.50
2023-04-11T17:11:27.305Z,1.90
2023-04-11T17:14:00.830Z,1.57
2023-04-11T17:16:33.994Z,1.63
2023-04-11T17:19:07.213Z,1.37
2023-04-11T17:21:40.368Z,1.27
2023-04-11T17:24:13.539Z,2.03
2023-04-11T17:26:46.729Z,1.00
2023-04-11T17:29:20.266Z,1.57
2023-04-11T17:31:53.421Z,3.03
2023-04-11T17:34:26.572Z,2.10
2023-04-11T17:36:59.767Z,1.90
2023-04-11T17:39:33.020Z,1.30
2023-04-11T17:42:06.489Z,1.43
2023-04-11T17:44:39.691Z,1.90
2023-04-11T17:47:12.880Z,2.13
2023-04-11T17:49:46.104Z,1.73
2023-04-11T17:52:19.296Z,3.33
2023-04-11T17:54:52.458Z,1.23
2023-04-11T17:57:25.650Z,1.30
2023-04-11T18:00:02.077Z,1.40
2023-04-11T18:02:38.398Z,2.10
2023-04-11T18:05:23.054Z,2.00
2023-04-11T18:07:58.795Z,1.27
2023-04-11T18:10:32.121Z,1.63
2023-04-11T18:13:05.645Z,2.17
2023-04-11T18:15:38.953Z,2.60
2023-04-11T18:18:12.150Z,1.27
2023-04-11T18:20:45.393Z,3.70
2023-04-11T18:23:18.583Z,1.30
2023-04-11T18:25:52.539Z,2.67
2023-04-11T18:28:25.897Z,1.50
2023-04-11T18:30:59.114Z,1.50
2023-04-11T18:33:32.720Z,1.33
2023-04-11T18:36:06.257Z,0.97
2023-04-11T18:38:39.575Z,1.30
2023-04-11T18:41:12.861Z,1.47
2023-04-11T18:43:46.227Z,1.83
2023-04-11T18:46:19.523Z,1.33
2023-04-11T18:48:52.812Z,1.53
2023-04-11T18:51:26.080Z,1.23
2023-04-11T18:53:59.266Z,2.90
2023-04-11T18:56:32.927Z,1.00
2023-04-11T18:59:09.756Z,1.27
2023-04-11T19:01:43.880Z,1.27
2023-04-11T19:04:17.849Z,0.70
2023-04-11T19:06:51.530Z,1.47
2023-04-11T19:09:24.790Z,0.80
2023-04-11T19:11:57.935Z,0.90
2023-04-11T19:14:31.123Z,1.17
2023-04-11T19:17:04.418Z,1.73
2023-04-11T19:19:37.598Z,0.70
2023-04-11T19:22:10.820Z,1.10
2023-04-11T19:24:44.147Z,1.90
2023-04-11T19:27:18.463Z,1.07
2023-04-11T19:29:51.700Z,1.00
2023-04-11T19:32:24.899Z,1.83
2023-04-11T19:34:58.645Z,1.10
2023-04-11T19:37:33.562Z,1.30
2023-04-11T19:40:07.637Z,1.30
2023-04-11T19:42:41.577Z,1.03
2023-04-11T19:45:14.817Z,2.57
2023-04-11T19:47:48.090Z,2.37
2023-04-11T19:50:22.848Z,1.00
2023-04-11T19:53:01.437Z,1.07
2023-04-11T19:55:34.620Z,1.40
2023-04-11T19:58:07.833Z,1.27
2023-04-11T20:00:41.823Z,2.50
2023-04-11T20:03:15.238Z,1.40
2023-04-11T20:05:48.599Z,1.23
2023-04-11T20:08:21.882Z,1.23
2023-04-11T20:10:55.121Z,1.63
2023-04-11T20:13:28.345Z,1.27
2023-04-11T20:16:04.620Z,0.70
2023-04-11T20:18:37.875Z,0.87
2023-04-11T20:21:11.861Z,1.00
2023-04-11T20:23:45.111Z,1.40
2023-04-11T20:26:18.270Z,1.43
2023-04-11T20:28:53.057Z,1.00
2023-04-11T20:31:26.463Z,1.40
2023-04-11T20:33:59.889Z,1.17
2023-04-11T20:36:33.738Z,1.00
2023-04-11T20:39:07.070Z,1.40
2023-04-11T20:41:40.590Z,1.10
2023-04-11T20:44:17.894Z,1.10
2023-04-11T20:46:51.257Z,1.00
2023-04-11T20:49:27.826Z,1.10
2023-04-11T20:52:01.059Z,1.17
2023-04-11T20:54:34.267Z,1.63
2023-04-11T20:57:08.144Z,0.80
2023-04-11T20:59:42.431Z,1.33
2023-04-11T21:02:16.364Z,0.60
2023-04-11T21:04:52.875Z,0.90
2023-04-11T21:07:26.248Z,1.20
2023-04-11T21:10:01.545Z,1.30
2023-04-11T21:12:35.352Z,0.50
2023-04-11T21:15:08.877Z,0.70
2023-04-11T21:17:42.136Z,1.70
2023-04-11T21:20:19.449Z,1.43
2023-04-11T21:22:53.067Z,1.73
2023-04-11T21:25:26.356Z,0.50
2023-04-11T21:27:59.579Z,1.00
2023-04-11T21:30:32.843Z,1.20
2023-04-11T21:33:06.110Z,1.23
2023-04-11T21:35:39.461Z,0.80
2023-04-11T21:38:13.090Z,0.90
2023-04-11T21:40:46.507Z,0.77
2023-04-11T21:43:19.680Z,0.70
2023-04-11T21:45:52.895Z,1.00
2023-04-11T21:48:26.057Z,2.73
2023-04-11T21:50:59.310Z,0.70
2023-04-11T21:53:32.486Z,1.63
2023-04-11T21:56:07.303Z,0.70
2023-04-11T21:58:40.677Z,1.60
2023-04-11T22:01:15.316Z,0.70
2023-04-11T22:03:50.357Z,0.90
2023-04-11T22:06:26.352Z,1.37
2023-04-11T22:09:01.142Z,1.77
2023-04-11T22:11:34.367Z,0.93
2023-04-11T22:14:08.164Z,0.73
2023-04-11T22:16:43.956Z,0.50
2023-04-11T22:19:20.782Z,0.50
2023-04-11T22:21:55.727Z,1.30
2023-04-11T22:24:30.299Z,1.33
2023-04-11T22:27:05.568Z,0.70
2023-04-11T22:29:38.776Z,0.80
2023-04-11T22:32:12.591Z,2.23
2023-04-11T22:34:45.916Z,0.93
2023-04-11T22:37:19.151Z,1.17
2023-04-11T22:39:52.381Z,1.17
2023-04-11T22:42:25.884Z,1.20
2023-04-11T22:44:59.168Z,1.07
2023-04-11T22:47:34.394Z,0.90
2023-04-11T22:50:09.374Z,1.27
2023-04-11T22:52:42.541Z,0.73
2023-04-11T22:55:19.971Z,1.13
2023-04-11T22:57:53.230Z,1.00
2023-04-11T23:00:26.442Z,1.83
2023-04-11T23:02:59.977Z,1.00
2023-04-11T23:05:33.312Z,1.33
2023-04-11T23:08:06.910Z,1.17
2023-04-11T23:10:40.120Z,1.10
2023-04-11T23:13:14.121Z,1.20
2023-04-11T23:15:48.318Z,1.10
2023-04-11T23:18:21.495Z,0.93
2023-04-11T23:20:55.132Z,0.90
2023-04-11T23:23:28.649Z,0.70
2023-04-11T23:26:01.847Z,1.70
2023-04-11T23:28:34.998Z,1.13
2023-04-11T23:31:08.280Z,1.80
2023-04-11T23:33:41.488Z,1.70
2023-04-11T23:36:14.773Z,1.33
2023-04-11T23:38:47.984Z,0.60
2023-04-11T23:41:21.237Z,0.60
2023-04-11T23:43:54.410Z,1.33
2023-04-11T23:46:27.922Z,1.37
2023-04-11T23:49:01.400Z,1.07
2023-04-11T23:51:34.669Z,0.67
2023-04-11T23:54:07.952Z,1.10
2023-04-11T23:56:41.153Z,1.67
2023-04-11T23:59:14.338Z,0.80
